sensor_id;sensor_type;location;lat;lon;timestamp;pressure;altitude;pressure_sealevel;temperature
55038;BMP280;40937;53.594;10.034;2023-07-16T00:02:03;100957.13;;;22.01
55038;BMP280;40937;53.594;10.034;2023-07-16T00:04:30;100942.09;;;22.00
55038;BMP280;40937;53.594;10.034;2023-07-16T00:06:59;100943.69;;;22.01
55038;BMP280;40937;53.594;10.034;2023-07-16T00:09:28;100939.56;;;21.95
55038;BMP280;40937;53.594;10.034;2023-07-16T00:11:55;100937.44;;;21.83
55038;BMP280;40937;53.594;10.034;2023-07-16T00:14:23;100918.66;;;21.92
55038;BMP280;40937;53.594;10.034;2023-07-16T00:16:50;100917.72;;;21.88
55038;BMP280;40937;53.594;10.034;2023-07-16T00:19:17;100896.00;;;21.76
55038;BMP280;40937;53.594;10.034;2023-07-16T00:21:45;100901.06;;;21.77
55038;BMP280;40937;53.594;10.034;2023-07-16T00:24:12;100918.84;;;21.64
55038;BMP280;40937;53.594;10.034;2023-07-16T00:26:40;100932.50;;;21.77
55038;BMP280;40937;53.594;10.034;2023-07-16T00:29:08;100934.75;;;21.83
55038;BMP280;40937;53.594;10.034;2023-07-16T00:31:36;100937.72;;;21.73
55038;BMP280;40937;53.594;10.034;2023-07-16T00:34:03;100943.50;;;21.67
55038;BMP280;40937;53.594;10.034;2023-07-16T00:36:31;100941.06;;;21.79
55038;BMP280;40937;53.594;10.034;2023-07-16T00:38:58;100976.38;;;21.72
55038;BMP280;40937;53.594;10.034;2023-07-16T00:41:25;100986.69;;;21.79
55038;BMP280;40937;53.594;10.034;2023-07-16T00:43:54;100992.66;;;21.67
55038;BMP280;40937;53.594;10.034;2023-07-16T00:46:21;100970.72;;;21.74
55038;BMP280;40937;53.594;10.034;2023-07-16T00:48:49;100961.22;;;21.68
55038;BMP280;40937;53.594;10.034;2023-07-16T00:51:16;100959.13;;;21.64
55038;BMP280;40937;53.594;10.034;2023-07-16T00:53:45;100960.59;;;21.71
55038;BMP280;40937;53.594;10.034;2023-07-16T00:56:16;100985.22;;;21.73
55038;BMP280;40937;53.594;10.034;2023-07-16T00:58:44;100988.06;;;21.68
55038;BMP280;40937;53.594;10.034;2023-07-16T01:01:12;100984.75;;;21.71
55038;BMP280;40937;53.594;10.034;2023-07-16T01:03:40;100985.38;;;21.68
55038;BMP280;40937;53.594;10.034;2023-07-16T01:06:11;100976.34;;;21.63
55038;BMP280;40937;53.594;10.034;2023-07-16T01:08:45;100947.56;;;21.55
55038;BMP280;40937;53.594;10.034;2023-07-16T01:11:13;100950.69;;;21.57
55038;BMP280;40937;53.594;10.034;2023-07-16T01:13:41;100973.44;;;21.51
55038;BMP280;40937;53.594;10.034;2023-07-16T01:16:19;100979.75;;;21.55
55038;BMP280;40937;53.594;10.034;2023-07-16T01:18:46;100997.78;;;21.55
55038;BMP280;40937;53.594;10.034;2023-07-16T01:21:14;100979.75;;;21.55
55038;BMP280;40937;53.594;10.034;2023-07-16T01:24:04;100980.75;;;21.59
55038;BMP280;40937;53.594;10.034;2023-07-16T01:26:58;100976.47;;;21.58
55038;BMP280;40937;53.594;10.034;2023-07-16T01:29:31;100972.00;;;21.54
55038;BMP280;40937;53.594;10.034;2023-07-16T01:32:05;100974.06;;;21.57
55038;BMP280;40937;53.594;10.034;2023-07-16T01:34:36;100974.97;;;21.52
55038;BMP280;40937;53.594;10.034;2023-07-16T01:37:04;100964.69;;;21.46
55038;BMP280;40937;53.594;10.034;2023-07-16T01:39:32;100967.25;;;21.51
55038;BMP280;40937;53.594;10.034;2023-07-16T01:42:00;100974.03;;;21.48
55038;BMP280;40937;53.594;10.034;2023-07-16T01:44:27;100987.50;;;21.57
55038;BMP280;40937;53.594;10.034;2023-07-16T01:47:05;100987.56;;;21.43
55038;BMP280;40937;53.594;10.034;2023-07-16T01:49:33;100984.31;;;21.32
55038;BMP280;40937;53.594;10.034;2023-07-16T01:52:01;100986.47;;;21.44
55038;BMP280;40937;53.594;10.034;2023-07-16T01:54:30;100984.75;;;21.48
55038;BMP280;40937;53.594;10.034;2023-07-16T01:56:57;100982.63;;;21.36
55038;BMP280;40937;53.594;10.034;2023-07-16T01:59:25;100980.00;;;21.45
55038;BMP280;40937;53.594;10.034;2023-07-16T02:01:55;100973.66;;;21.41
55038;BMP280;40937;53.594;10.034;2023-07-16T02:04:24;100987.38;;;21.39
55038;BMP280;40937;53.594;10.034;2023-07-16T02:06:51;100992.28;;;21.37
55038;BMP280;40937;53.594;10.034;2023-07-16T02:09:22;101003.91;;;21.33
55038;BMP280;40937;53.594;10.034;2023-07-16T02:11:49;100996.03;;;21.36
55038;BMP280;40937;53.594;10.034;2023-07-16T02:14:16;100999.50;;;21.37
55038;BMP280;40937;53.594;10.034;2023-07-16T02:16:44;100992.06;;;21.34
55038;BMP280;40937;53.594;10.034;2023-07-16T02:19:11;100981.63;;;21.32
55038;BMP280;40937;53.594;10.034;2023-07-16T02:21:39;100977.56;;;21.35
55038;BMP280;40937;53.594;10.034;2023-07-16T02:24:07;100980.84;;;21.32
55038;BMP280;40937;53.594;10.034;2023-07-16T02:26:34;100980.25;;;21.35
55038;BMP280;40937;53.594;10.034;2023-07-16T02:29:01;100977.84;;;21.33
55038;BMP280;40937;53.594;10.034;2023-07-16T02:31:29;100980.84;;;21.32
55038;BMP280;40937;53.594;10.034;2023-07-16T02:33:56;100990.28;;;21.29
55038;BMP280;40937;53.594;10.034;2023-07-16T02:36:24;101005.72;;;21.24
55038;BMP280;40937;53.594;10.034;2023-07-16T02:38:52;101003.94;;;21.19
55038;BMP280;40937;53.594;10.034;2023-07-16T02:41:19;100996.22;;;21.17
55038;BMP280;40937;53.594;10.034;2023-07-16T02:43:47;100987.84;;;21.19
55038;BMP280;40937;53.594;10.034;2023-07-16T02:46:14;101004.34;;;21.12
55038;BMP280;40937;53.594;10.034;2023-07-16T02:48:41;100993.59;;;21.12
55038;BMP280;40937;53.594;10.034;2023-07-16T02:51:09;100995.31;;;21.08
55038;BMP280;40937;53.594;10.034;2023-07-16T02:53:36;100993.00;;;21.15
55038;BMP280;40937;53.594;10.034;2023-07-16T02:56:05;100992.63;;;21.08
55038;BMP280;40937;53.594;10.034;2023-07-16T02:58:32;100983.97;;;21.11
55038;BMP280;40937;53.594;10.034;2023-07-16T03:01:00;100987.94;;;21.14
55038;BMP280;40937;53.594;10.034;2023-07-16T03:03:27;100994.00;;;21.19
55038;BMP280;40937;53.594;10.034;2023-07-16T03:05:55;101002.66;;;21.16
55038;BMP280;40937;53.594;10.034;2023-07-16T03:08:23;100993.81;;;21.16
55038;BMP280;40937;53.594;10.034;2023-07-16T03:10:55;100996.00;;;21.14
55038;BMP280;40937;53.594;10.034;2023-07-16T03:13:24;100991.41;;;21.14
55038;BMP280;40937;53.594;10.034;2023-07-16T03:15:52;100988.72;;;21.14
55038;BMP280;40937;53.594;10.034;2023-07-16T03:18:19;100988.84;;;21.09
55038;BMP280;40937;53.594;10.034;2023-07-16T03:20:47;100983.88;;;21.16
55038;BMP280;40937;53.594;10.034;2023-07-16T03:23:15;100987.03;;;21.18
55038;BMP280;40937;53.594;10.034;2023-07-16T03:25:42;100987.75;;;21.10
55038;BMP280;40937;53.594;10.034;2023-07-16T03:28:09;101001.75;;;21.07
55038;BMP280;40937;53.594;10.034;2023-07-16T03:30:38;100997.47;;;21.06
55038;BMP280;40937;53.594;10.034;2023-07-16T03:33:05;101002.56;;;21.08
55038;BMP280;40937;53.594;10.034;2023-07-16T03:35:34;101003.97;;;21.05
55038;BMP280;40937;53.594;10.034;2023-07-16T03:38:02;101001.75;;;21.07
55038;BMP280;40937;53.594;10.034;2023-07-16T03:40:30;100998.63;;;21.05
55038;BMP280;40937;53.594;10.034;2023-07-16T03:42:57;100998.63;;;21.05
55038;BMP280;40937;53.594;10.034;2023-07-16T03:45:24;101005.53;;;21.06
55038;BMP280;40937;53.594;10.034;2023-07-16T03:47:53;101003.16;;;21.05
55038;BMP280;40937;53.594;10.034;2023-07-16T03:50:21;101006.25;;;20.98
55038;BMP280;40937;53.594;10.034;2023-07-16T03:52:48;101014.28;;;20.98
55038;BMP280;40937;53.594;10.034;2023-07-16T03:55:16;101008.75;;;20.94
55038;BMP280;40937;53.594;10.034;2023-07-16T03:57:43;101022.16;;;20.94
55038;BMP280;40937;53.594;10.034;2023-07-16T04:00:11;101033.38;;;20.96
55038;BMP280;40937;53.594;10.034;2023-07-16T04:02:41;101033.66;;;20.95
55038;BMP280;40937;53.594;10.034;2023-07-16T04:05:15;101047.19;;;20.90
55038;BMP280;40937;53.594;10.034;2023-07-16T04:07:42;101049.41;;;20.88
55038;BMP280;40937;53.594;10.034;2023-07-16T04:10:12;101047.97;;;20.90
55038;BMP280;40937;53.594;10.034;2023-07-16T04:12:40;101045.28;;;20.90
55038;BMP280;40937;53.594;10.034;2023-07-16T04:15:08;101057.44;;;20.88
55038;BMP280;40937;53.594;10.034;2023-07-16T04:17:36;101065.47;;;20.88
55038;BMP280;40937;53.594;10.034;2023-07-16T04:20:04;101070.31;;;20.86
55038;BMP280;40937;53.594;10.034;2023-07-16T04:22:34;101078.88;;;20.88
55038;BMP280;40937;53.594;10.034;2023-07-16T04:25:02;101081.03;;;20.86
55038;BMP280;40937;53.594;10.034;2023-07-16T04:27:29;101085.44;;;20.82
55038;BMP280;40937;53.594;10.034;2023-07-16T04:29:59;101076.88;;;20.79
55038;BMP280;40937;53.594;10.034;2023-07-16T04:32:26;101077.44;;;20.76
55038;BMP280;40937;53.594;10.034;2023-07-16T04:34:54;101075.69;;;20.86
55038;BMP280;40937;53.594;10.034;2023-07-16T04:37:21;101090.22;;;20.85
55038;BMP280;40937;53.594;10.034;2023-07-16T04:39:50;101090.22;;;20.85
55038;BMP280;40937;53.594;10.034;2023-07-16T04:42:17;101088.81;;;20.87
55038;BMP280;40937;53.594;10.034;2023-07-16T04:44:44;101075.50;;;20.82
55038;BMP280;40937;53.594;10.034;2023-07-16T04:47:11;101066.56;;;20.87
55038;BMP280;40937;53.594;10.034;2023-07-16T04:49:38;101075.69;;;20.86
55038;BMP280;40937;53.594;10.034;2023-07-16T04:52:06;101077.78;;;20.89
55038;BMP280;40937;53.594;10.034;2023-07-16T04:54:36;101076.09;;;20.93
55038;BMP280;40937;53.594;10.034;2023-07-16T04:57:06;101073.44;;;20.93
55038;BMP280;40937;53.594;10.034;2023-07-16T04:59:34;101072.09;;;20.90
55038;BMP280;40937;53.594;10.034;2023-07-16T05:02:04;101075.50;;;20.96
55038;BMP280;40937;53.594;10.034;2023-07-16T05:04:32;101065.78;;;21.00
55038;BMP280;40937;53.594;10.034;2023-07-16T05:07:00;101068.94;;;21.02
55038;BMP280;40937;53.594;10.034;2023-07-16T05:09:28;101075.28;;;21.06
55038;BMP280;40937;53.594;10.034;2023-07-16T05:11:55;101074.69;;;21.09
55038;BMP280;40937;53.594;10.034;2023-07-16T05:14:27;101083.41;;;21.15
55038;BMP280;40937;53.594;10.034;2023-07-16T05:16:55;101088.31;;;21.27
55038;BMP280;40937;53.594;10.034;2023-07-16T05:19:23;101093.34;;;21.42
55038;BMP280;40937;53.594;10.034;2023-07-16T05:21:50;101098.13;;;21.45
55038;BMP280;40937;53.594;10.034;2023-07-16T05:24:17;101100.69;;;21.50
55038;BMP280;40937;53.594;10.034;2023-07-16T05:26:44;101110.72;;;21.44
55038;BMP280;40937;53.594;10.034;2023-07-16T05:29:11;101099.91;;;21.50
55038;BMP280;40937;53.594;10.034;2023-07-16T05:31:42;101103.44;;;21.59
55038;BMP280;40937;53.594;10.034;2023-07-16T05:34:10;101099.34;;;21.61
55038;BMP280;40937;53.594;10.034;2023-07-16T05:36:37;101110.78;;;21.67
55038;BMP280;40937;53.594;10.034;2023-07-16T05:39:04;101110.19;;;21.70
55038;BMP280;40937;53.594;10.034;2023-07-16T05:41:31;101118.88;;;21.76
55038;BMP280;40937;53.594;10.034;2023-07-16T05:43:58;101117.34;;;21.75
55038;BMP280;40937;53.594;10.034;2023-07-16T05:46:26;101115.72;;;21.74
55038;BMP280;40937;53.594;10.034;2023-07-16T05:48:54;101123.06;;;21.82
55038;BMP280;40937;53.594;10.034;2023-07-16T05:51:22;101131.31;;;21.85
55038;BMP280;40937;53.594;10.034;2023-07-16T05:53:49;101125.03;;;21.90
55038;BMP280;40937;53.594;10.034;2023-07-16T05:56:16;101128.19;;;21.92
55038;BMP280;40937;53.594;10.034;2023-07-16T05:58:43;101136.75;;;21.94
55038;BMP280;40937;53.594;10.034;2023-07-16T06:01:10;101135.34;;;21.97
55038;BMP280;40937;53.594;10.034;2023-07-16T06:03:37;101132.47;;;21.93
55038;BMP280;40937;53.594;10.034;2023-07-16T06:06:08;101139.34;;;21.99
55038;BMP280;40937;53.594;10.034;2023-07-16T06:08:35;101141.13;;;22.04
55038;BMP280;40937;53.594;10.034;2023-07-16T06:11:02;101136.50;;;22.04
55038;BMP280;40937;53.594;10.034;2023-07-16T06:13:30;101138.91;;;22.06
55038;BMP280;40937;53.594;10.034;2023-07-16T06:15:57;101140.69;;;22.11
55038;BMP280;40937;53.594;10.034;2023-07-16T06:18:24;101142.63;;;22.19
55038;BMP280;40937;53.594;10.034;2023-07-16T06:20:51;101152.91;;;22.25
55038;BMP280;40937;53.594;10.034;2023-07-16T06:23:22;101136.56;;;22.36
55038;BMP280;40937;53.594;10.034;2023-07-16T06:25:53;101146.78;;;22.47
55038;BMP280;40937;53.594;10.034;2023-07-16T06:28:21;101151.22;;;22.52
55038;BMP280;40937;53.594;10.034;2023-07-16T06:30:49;101149.00;;;22.54
55038;BMP280;40937;53.594;10.034;2023-07-16T06:33:17;101149.16;;;22.58
55038;BMP280;40937;53.594;10.034;2023-07-16T06:35:45;101155.53;;;22.62
55038;BMP280;40937;53.594;10.034;2023-07-16T06:38:13;101155.53;;;22.62
55038;BMP280;40937;53.594;10.034;2023-07-16T06:40:45;101154.91;;;22.65
55038;BMP280;40937;53.594;10.034;2023-07-16T06:43:14;101164.56;;;22.66
55038;BMP280;40937;53.594;10.034;2023-07-16T06:45:41;101160.28;;;22.65
55038;BMP280;40937;53.594;10.034;2023-07-16T06:48:08;101164.22;;;22.67
55038;BMP280;40937;53.594;10.034;2023-07-16T06:50:36;101149.69;;;22.68
55038;BMP280;40937;53.594;10.034;2023-07-16T06:53:03;101165.38;;;22.75
55038;BMP280;40937;53.594;10.034;2023-07-16T06:55:30;101164.91;;;22.73
55038;BMP280;40937;53.594;10.034;2023-07-16T06:57:59;101164.63;;;22.74
55038;BMP280;40937;53.594;10.034;2023-07-16T07:00:27;101161.75;;;22.80
55038;BMP280;40937;53.594;10.034;2023-07-16T07:02:54;101164.00;;;22.78
55038;BMP280;40937;53.594;10.034;2023-07-16T07:05:21;101166.34;;;22.79
55038;BMP280;40937;53.594;10.034;2023-07-16T07:07:48;101165.44;;;22.84
55038;BMP280;40937;53.594;10.034;2023-07-16T07:10:16;101180.19;;;22.86
55038;BMP280;40937;53.594;10.034;2023-07-16T07:12:43;101175.72;;;22.82
55038;BMP280;40937;53.594;10.034;2023-07-16T07:15:12;101178.94;;;22.92
55038;BMP280;40937;53.594;10.034;2023-07-16T07:17:39;101185.25;;;22.96
55038;BMP280;40937;53.594;10.034;2023-07-16T07:20:09;101168.84;;;23.07
55038;BMP280;40937;53.594;10.034;2023-07-16T07:22:36;101181.81;;;23.13
55038;BMP280;40937;53.594;10.034;2023-07-16T07:25:04;101175.06;;;23.16
55038;BMP280;40937;53.594;10.034;2023-07-16T07:27:31;101181.22;;;23.16
55038;BMP280;40937;53.594;10.034;2023-07-16T07:29:59;101184.09;;;23.20
55038;BMP280;40937;53.594;10.034;2023-07-16T07:32:29;101177.72;;;23.25
55038;BMP280;40937;53.594;10.034;2023-07-16T07:34:56;101177.31;;;23.31
55038;BMP280;40937;53.594;10.034;2023-07-16T07:37:23;101182.84;;;23.35
55038;BMP280;40937;53.594;10.034;2023-07-16T07:39:52;101183.50;;;23.32
55038;BMP280;40937;53.594;10.034;2023-07-16T07:42:19;101177.63;;;23.38
55038;BMP280;40937;53.594;10.034;2023-07-16T07:44:47;101168.91;;;23.42
55038;BMP280;40937;53.594;10.034;2023-07-16T07:47:14;101174.78;;;23.44
55038;BMP280;40937;53.594;10.034;2023-07-16T07:49:42;101176.38;;;23.45
55038;BMP280;40937;53.594;10.034;2023-07-16T07:52:09;101175.13;;;23.51
55038;BMP280;40937;53.594;10.034;2023-07-16T07:54:37;101179.25;;;23.57
55038;BMP280;40937;53.594;10.034;2023-07-16T07:57:07;101180.22;;;23.61
55038;BMP280;40937;53.594;10.034;2023-07-16T07:59:34;101177.03;;;23.59
55038;BMP280;40937;53.594;10.034;2023-07-16T08:02:01;101170.84;;;23.50
55038;BMP280;40937;53.594;10.034;2023-07-16T08:04:28;101177.34;;;23.49
55038;BMP280;40937;53.594;10.034;2023-07-16T08:06:58;101180.38;;;23.56
55038;BMP280;40937;53.594;10.034;2023-07-16T08:09:26;101175.47;;;23.58
55038;BMP280;40937;53.594;10.034;2023-07-16T08:11:53;101193.19;;;23.59
55038;BMP280;40937;53.594;10.034;2023-07-16T08:14:21;101174.03;;;23.60
55038;BMP280;40937;53.594;10.034;2023-07-16T08:16:48;101179.25;;;23.57
55038;BMP280;40937;53.594;10.034;2023-07-16T08:19:15;101177.81;;;23.59
55038;BMP280;40937;53.594;10.034;2023-07-16T08:21:43;101190.84;;;23.57
55038;BMP280;40937;53.594;10.034;2023-07-16T08:24:12;101178.91;;;23.58
55038;BMP280;40937;53.594;10.034;2023-07-16T08:26:39;101184.00;;;23.60
55038;BMP280;40937;53.594;10.034;2023-07-16T08:29:06;101178.16;;;23.58
55038;BMP280;40937;53.594;10.034;2023-07-16T08:31:34;101170.06;;;23.58
55038;BMP280;40937;53.594;10.034;2023-07-16T08:34:01;101177.66;;;23.56
55038;BMP280;40937;53.594;10.034;2023-07-16T08:36:28;101173.84;;;23.57
55038;BMP280;40937;53.594;10.034;2023-07-16T08:38:55;101171.78;;;23.62
55038;BMP280;40937;53.594;10.034;2023-07-16T08:41:24;101171.94;;;23.66
55038;BMP280;40937;53.594;10.034;2023-07-16T08:43:53;101183.69;;;23.70
55038;BMP280;40937;53.594;10.034;2023-07-16T08:46:20;101178.31;;;23.70
55038;BMP280;40937;53.594;10.034;2023-07-16T08:48:48;101159.94;;;23.72
55038;BMP280;40937;53.594;10.034;2023-07-16T08:51:16;101173.84;;;23.74
55038;BMP280;40937;53.594;10.034;2023-07-16T08:53:43;101182.44;;;23.76
55038;BMP280;40937;53.594;10.034;2023-07-16T08:56:11;101179.41;;;23.78
55038;BMP280;40937;53.594;10.034;2023-07-16T08:58:41;101185.28;;;23.80
55038;BMP280;40937;53.594;10.034;2023-07-16T09:01:10;101181.47;;;23.81
55038;BMP280;40937;53.594;10.034;2023-07-16T09:03:37;101188.94;;;23.84
55038;BMP280;40937;53.594;10.034;2023-07-16T09:06:04;101189.69;;;23.84
55038;BMP280;40937;53.594;10.034;2023-07-16T09:08:32;101198.91;;;23.83
55038;BMP280;40937;53.594;10.034;2023-07-16T09:10:59;101196.53;;;23.82
55038;BMP280;40937;53.594;10.034;2023-07-16T09:13:26;101209.69;;;23.83
55038;BMP280;40937;53.594;10.034;2023-07-16T09:15:56;101205.13;;;23.84
55038;BMP280;40937;53.594;10.034;2023-07-16T09:18:25;101215.91;;;23.84
55038;BMP280;40937;53.594;10.034;2023-07-16T09:20:54;101218.88;;;23.82
55038;BMP280;40937;53.594;10.034;2023-07-16T09:23:24;101204.63;;;23.73
55038;BMP280;40937;53.594;10.034;2023-07-16T09:25:53;101220.16;;;23.76
55038;BMP280;40937;53.594;10.034;2023-07-16T09:28:20;101233.44;;;23.81
55038;BMP280;40937;53.594;10.034;2023-07-16T09:30:48;101219.19;;;23.72
55038;BMP280;40937;53.594;10.034;2023-07-16T09:33:18;101231.56;;;23.73
55038;BMP280;40937;53.594;10.034;2023-07-16T09:35:49;101228.56;;;23.75
55038;BMP280;40937;53.594;10.034;2023-07-16T09:38:17;101230.94;;;23.76
55038;BMP280;40937;53.594;10.034;2023-07-16T09:40:45;101233.44;;;23.81
55038;BMP280;40937;53.594;10.034;2023-07-16T09:43:13;101234.41;;;23.86
55038;BMP280;40937;53.594;10.034;2023-07-16T09:45:42;101236.47;;;23.89
55038;BMP280;40937;53.594;10.034;2023-07-16T09:48:09;101243.00;;;23.88
55038;BMP280;40937;53.594;10.034;2023-07-16T09:50:38;101233.00;;;23.79
55038;BMP280;40937;53.594;10.034;2023-07-16T09:53:09;101230.75;;;23.73
55038;BMP280;40937;53.594;10.034;2023-07-16T09:55:37;101236.00;;;23.69
55038;BMP280;40937;53.594;10.034;2023-07-16T09:58:08;101243.25;;;23.60
55038;BMP280;40937;53.594;10.034;2023-07-16T10:00:37;101241.97;;;23.49
55038;BMP280;40937;53.594;10.034;2023-07-16T10:03:06;101258.41;;;23.38
55038;BMP280;40937;53.594;10.034;2023-07-16T10:05:37;101254.00;;;23.43
55038;BMP280;40937;53.594;10.034;2023-07-16T10:08:14;101266.00;;;23.36
55038;BMP280;40937;53.594;10.034;2023-07-16T10:10:43;101257.47;;;23.34
55038;BMP280;40937;53.594;10.034;2023-07-16T10:13:12;101262.84;;;23.34
55038;BMP280;40937;53.594;10.034;2023-07-16T10:15:50;101271.53;;;23.31
55038;BMP280;40937;53.594;10.034;2023-07-16T10:18:25;101274.34;;;23.26
55038;BMP280;40937;53.594;10.034;2023-07-16T10:21:00;101276.88;;;23.23
55038;BMP280;40937;53.594;10.034;2023-07-16T10:23:37;101266.91;;;23.23
55038;BMP280;40937;53.594;10.034;2023-07-16T10:26:06;101273.50;;;23.17
55038;BMP280;40937;53.594;10.034;2023-07-16T10:28:34;101267.72;;;23.24
55038;BMP280;40937;53.594;10.034;2023-07-16T10:31:01;101299.81;;;23.20
55038;BMP280;40937;53.594;10.034;2023-07-16T10:33:29;101290.63;;;23.21
55038;BMP280;40937;53.594;10.034;2023-07-16T10:35:58;101285.13;;;23.26
55038;BMP280;40937;53.594;10.034;2023-07-16T10:38:25;101287.81;;;23.26
55038;BMP280;40937;53.594;10.034;2023-07-16T10:40:53;101294.78;;;23.27
55038;BMP280;40937;53.594;10.034;2023-07-16T10:43:20;101294.31;;;23.25
55038;BMP280;40937;53.594;10.034;2023-07-16T10:45:50;101293.09;;;23.31
55038;BMP280;40937;53.594;10.034;2023-07-16T10:48:17;101302.13;;;23.35
55038;BMP280;40937;53.594;10.034;2023-07-16T10:50:44;101292.31;;;23.39
55038;BMP280;40937;53.594;10.034;2023-07-16T10:53:13;101287.88;;;23.44
55038;BMP280;40937;53.594;10.034;2023-07-16T10:55:41;101302.81;;;23.50
55038;BMP280;40937;53.594;10.034;2023-07-16T10:58:08;101308.19;;;23.50
55038;BMP280;40937;53.594;10.034;2023-07-16T11:00:37;101294.91;;;23.53
55038;BMP280;40937;53.594;10.034;2023-07-16T11:03:04;101296.97;;;23.56
55038;BMP280;40937;53.594;10.034;2023-07-16T11:05:35;101299.03;;;23.59
55038;BMP280;40937;53.594;10.034;2023-07-16T11:08:02;101300.34;;;23.62
55038;BMP280;40937;53.594;10.034;2023-07-16T11:10:31;101300.78;;;23.64
55038;BMP280;40937;53.594;10.034;2023-07-16T11:12:58;101307.41;;;23.67
55038;BMP280;40937;53.594;10.034;2023-07-16T11:15:30;101308.41;;;23.71
55038;BMP280;40937;53.594;10.034;2023-07-16T11:17:59;101316.31;;;23.67
55038;BMP280;40937;53.594;10.034;2023-07-16T11:20:26;101310.44;;;23.65
55038;BMP280;40937;53.594;10.034;2023-07-16T11:22:58;101319.97;;;23.71
55038;BMP280;40937;53.594;10.034;2023-07-16T11:25:28;101323.94;;;23.74
55038;BMP280;40937;53.594;10.034;2023-07-16T11:27:57;101315.56;;;23.75
55038;BMP280;40937;53.594;10.034;2023-07-16T11:30:24;101322.53;;;23.76
55038;BMP280;40937;53.594;10.034;2023-07-16T11:32:53;101324.09;;;23.77
55038;BMP280;40937;53.594;10.034;2023-07-16T11:35:21;101310.81;;;23.81
55038;BMP280;40937;53.594;10.034;2023-07-16T11:37:48;101319.66;;;23.81
55038;BMP280;40937;53.594;10.034;2023-07-16T11:40:17;101322.84;;;23.83
55038;BMP280;40937;53.594;10.034;2023-07-16T11:42:45;101321.44;;;23.86
55038;BMP280;40937;53.594;10.034;2023-07-16T11:45:18;101316.03;;;23.86
55038;BMP280;40937;53.594;10.034;2023-07-16T11:47:46;101324.81;;;23.92
55038;BMP280;40937;53.594;10.034;2023-07-16T11:50:13;101328.09;;;23.97
55038;BMP280;40937;53.594;10.034;2023-07-16T11:52:41;101328.59;;;24.08
55038;BMP280;40937;53.594;10.034;2023-07-16T11:55:08;101339.72;;;24.15
55038;BMP280;40937;53.594;10.034;2023-07-16T11:57:35;101320.06;;;24.23
55038;BMP280;40937;53.594;10.034;2023-07-16T12:00:04;101349.72;;;24.23
55038;BMP280;40937;53.594;10.034;2023-07-16T12:02:34;101335.44;;;24.23
55038;BMP280;40937;53.594;10.034;2023-07-16T12:05:01;101343.84;;;24.21
55038;BMP280;40937;53.594;10.034;2023-07-16T12:07:32;101327.97;;;24.28
55038;BMP280;40937;53.594;10.034;2023-07-16T12:10:00;101341.78;;;24.36
55038;BMP280;40937;53.594;10.034;2023-07-16T12:12:27;101339.41;;;24.43
55038;BMP280;40937;53.594;10.034;2023-07-16T12:14:55;101331.78;;;24.45
55038;BMP280;40937;53.594;10.034;2023-07-16T12:17:22;101345.72;;;24.47
55038;BMP280;40937;53.594;10.034;2023-07-16T12:19:51;101341.16;;;24.39
55038;BMP280;40937;53.594;10.034;2023-07-16T12:22:18;101354.50;;;24.35
55038;BMP280;40937;53.594;10.034;2023-07-16T12:24:46;101354.66;;;24.39
55038;BMP280;40937;53.594;10.034;2023-07-16T12:27:14;101346.22;;;24.40
55038;BMP280;40937;53.594;10.034;2023-07-16T12:29:42;101352.41;;;24.41
55038;BMP280;40937;53.594;10.034;2023-07-16T12:32:09;101364.16;;;24.45
55038;BMP280;40937;53.594;10.034;2023-07-16T12:34:36;101372.25;;;24.45
55038;BMP280;40937;53.594;10.034;2023-07-16T12:37:05;101370.19;;;24.42
55038;BMP280;40937;53.594;10.034;2023-07-16T12:39:33;101368.59;;;24.41
55038;BMP280;40937;53.594;10.034;2023-07-16T12:42:01;101363.19;;;24.41
55038;BMP280;40937;53.594;10.034;2023-07-16T12:44:28;101359.84;;;24.44
55038;BMP280;40937;53.594;10.034;2023-07-16T12:46:55;101369.72;;;24.48
55038;BMP280;40937;53.594;10.034;2023-07-16T12:49:22;101369.88;;;24.52
55038;BMP280;40937;53.594;10.034;2023-07-16T12:51:50;101368.75;;;24.62
55038;BMP280;40937;53.594;10.034;2023-07-16T12:54:18;101365.75;;;24.63
55038;BMP280;40937;53.594;10.034;2023-07-16T12:56:45;101374.81;;;24.67
55038;BMP280;40937;53.594;10.034;2023-07-16T12:59:13;101374.81;;;24.67
55038;BMP280;40937;53.594;10.034;2023-07-16T13:01:40;101375.25;;;24.69
55038;BMP280;40937;53.594;10.034;2023-07-16T13:04:07;101373.50;;;24.73
55038;BMP280;40937;53.594;10.034;2023-07-16T13:06:34;101372.72;;;24.82
55038;BMP280;40937;53.594;10.034;2023-07-16T13:09:01;101372.38;;;24.92
55038;BMP280;40937;53.594;10.034;2023-07-16T13:11:32;101386.63;;;25.01
55038;BMP280;40937;53.594;10.034;2023-07-16T13:13:59;101385.97;;;25.04
55038;BMP280;40937;53.594;10.034;2023-07-16T13:16:27;101387.72;;;25.09
55038;BMP280;40937;53.594;10.034;2023-07-16T13:18:54;101385.00;;;25.17
55038;BMP280;40937;53.594;10.034;2023-07-16T13:21:21;101386.44;;;25.24
55038;BMP280;40937;53.594;10.034;2023-07-16T13:23:48;101389.44;;;25.22
55038;BMP280;40937;53.594;10.034;2023-07-16T13:26:16;101406.75;;;25.21
55038;BMP280;40937;53.594;10.034;2023-07-16T13:28:44;101390.41;;;25.17
55038;BMP280;40937;53.594;10.034;2023-07-16T13:31:11;101399.13;;;25.23
55038;BMP280;40937;53.594;10.034;2023-07-16T13:33:39;101416.13;;;25.24
55038;BMP280;40937;53.594;10.034;2023-07-16T13:36:06;101418.69;;;25.11
55038;BMP280;40937;53.594;10.034;2023-07-16T13:38:33;101410.16;;;25.09
55038;BMP280;40937;53.594;10.034;2023-07-16T13:41:00;101415.22;;;25.02
55038;BMP280;40937;53.594;10.034;2023-07-16T13:43:28;101410.63;;;24.94
55038;BMP280;40937;53.594;10.034;2023-07-16T13:45:56;101412.69;;;24.97
55038;BMP280;40937;53.594;10.034;2023-07-16T13:48:24;101411.25;;;25.00
55038;BMP280;40937;53.594;10.034;2023-07-16T13:50:51;101415.22;;;25.02